Airfield :
LOGIN :

Register | Disclaimer

   EN    FR    IT 

 










Legend :    VFR   Marginal VFR   IFR   Intensive IFR   Very Intensive IFR
Visi :
Ceiling :
>= 8 km
>= 3000ft
5 to 8 km
1000 to 3000 ft
1500m to 5 km
500 to 1000 ft
800 to 1500m
200 to 500 ft
< 800m
< 200 ft
Symbols :   Thunderstorms  Fog  Heavy snow  Heavy precipitations  Wind > 20 kt
SIGMETs :     Misc.  Thunderstorms  Icing  Turbulence  Mountain Waves  Volcanic Ashes






- Airport Elevation : 120 ft
- IATA code : MME


EGNV - Durham Tees valley

CURRENT METAR :
  • 081650Z 04012KT 9999 FEW017 17/11 Q1025

EXPIRED METARs :
  • 081620Z 04013KT 010V070 9999 FEW017 17/11 Q1025
  • 081550Z 05014KT 9999 FEW017 18/11 Q1025
  • 081520Z 04013KT 9999 FEW017 18/12 Q1025
  • 081450Z 04013KT 9999 SCT018 18/12 Q1025
  • 081420Z 03012KT 9999 FEW020 19/12 Q1025

TAF TAF EGNV
Valid from the 08 at 15:00 until the 08 at 21:00 UTC


081355Z 0815/0821 05010KT 9999 FEW025
BECMG 0818/0821 BKN012
ATIS : +44 9012 018 111



MET'MAP, your aeronautical weather chart ! - Copyright ORBIFLY December 2007 - Disclaimer

ORBIFLY MET'MAP TEAM :

Programming & Development : Alexandra Zaïnal
Concept & original design : Baudouin d'Aumeries
Assistance for programming : Marc-Olivier Méhu
Technical & hardware support : Manuel Goepfert

Contact : metmap@orbifly.com




SOURCES & CREDITS :

   NOAA